sensor_id;sensor_type;location;lat;lon;timestamp;temperature;humidity
62154;DHT22;48140;45.486;9.226;2024-02-26T00:01:07;8.70;99.90
62154;DHT22;48140;45.486;9.226;2024-02-26T00:03:33;8.60;99.90
62154;DHT22;48140;45.486;9.226;2024-02-26T00:06:01;8.50;99.90
62154;DHT22;48140;45.486;9.226;2024-02-26T00:08:28;8.50;99.90
62154;DHT22;48140;45.486;9.226;2024-02-26T00:10:53;8.50;99.90
62154;DHT22;48140;45.486;9.226;2024-02-26T00:13:19;8.50;99.90
62154;DHT22;48140;45.486;9.226;2024-02-26T00:15:45;8.50;99.90
62154;DHT22;48140;45.486;9.226;2024-02-26T00:18:11;8.50;99.90
62154;DHT22;48140;45.486;9.226;2024-02-26T00:20:36;8.40;99.90
62154;DHT22;48140;45.486;9.226;2024-02-26T00:23:02;8.40;99.90
62154;DHT22;48140;45.486;9.226;2024-02-26T00:25:28;8.40;99.90
62154;DHT22;48140;45.486;9.226;2024-02-26T00:27:53;8.40;99.90
62154;DHT22;48140;45.486;9.226;2024-02-26T00:30:19;8.40;99.90
62154;DHT22;48140;45.486;9.226;2024-02-26T00:32:44;8.40;99.90
62154;DHT22;48140;45.486;9.226;2024-02-26T00:35:10;8.40;99.90
62154;DHT22;48140;45.486;9.226;2024-02-26T00:37:36;8.40;99.90
62154;DHT22;48140;45.486;9.226;2024-02-26T00:40:01;8.40;99.90
62154;DHT22;48140;45.486;9.226;2024-02-26T00:42:34;8.40;99.90
62154;DHT22;48140;45.486;9.226;2024-02-26T00:44:59;8.50;99.90
62154;DHT22;48140;45.486;9.226;2024-02-26T00:47:25;8.50;99.90
62154;DHT22;48140;45.486;9.226;2024-02-26T00:49:50;8.40;99.90
62154;DHT22;48140;45.486;9.226;2024-02-26T00:52:16;8.40;99.90
62154;DHT22;48140;45.486;9.226;2024-02-26T00:54:41;8.40;99.90
62154;DHT22;48140;45.486;9.226;2024-02-26T00:57:07;8.40;99.90
62154;DHT22;48140;45.486;9.226;2024-02-26T00:59:33;8.30;99.90
62154;DHT22;48140;45.486;9.226;2024-02-26T01:01:58;8.30;99.90
62154;DHT22;48140;45.486;9.226;2024-02-26T01:04:27;8.40;99.90
62154;DHT22;48140;45.486;9.226;2024-02-26T01:06:55;8.40;99.90
62154;DHT22;48140;45.486;9.226;2024-02-26T01:09:20;8.40;99.90
62154;DHT22;48140;45.486;9.226;2024-02-26T01:11:46;8.40;99.90
62154;DHT22;48140;45.486;9.226;2024-02-26T01:14:12;8.40;99.90
62154;DHT22;48140;45.486;9.226;2024-02-26T01:16:37;8.40;99.90
62154;DHT22;48140;45.486;9.226;2024-02-26T01:19:03;8.40;99.90
62154;DHT22;48140;45.486;9.226;2024-02-26T01:21:29;8.40;99.90
62154;DHT22;48140;45.486;9.226;2024-02-26T01:23:55;8.40;99.90
62154;DHT22;48140;45.486;9.226;2024-02-26T01:26:21;8.30;99.90
62154;DHT22;48140;45.486;9.226;2024-02-26T01:28:47;8.30;99.90
62154;DHT22;48140;45.486;9.226;2024-02-26T01:31:13;8.40;99.90
62154;DHT22;48140;45.486;9.226;2024-02-26T01:33:38;8.30;99.90
62154;DHT22;48140;45.486;9.226;2024-02-26T01:36:04;8.30;99.90
62154;DHT22;48140;45.486;9.226;2024-02-26T01:38:32;8.30;99.90
62154;DHT22;48140;45.486;9.226;2024-02-26T01:40:58;8.30;99.90
62154;DHT22;48140;45.486;9.226;2024-02-26T01:43:24;8.30;99.90
62154;DHT22;48140;45.486;9.226;2024-02-26T01:45:49;8.30;99.90
62154;DHT22;48140;45.486;9.226;2024-02-26T01:48:15;8.30;99.90
62154;DHT22;48140;45.486;9.226;2024-02-26T01:50:40;8.30;99.90
62154;DHT22;48140;45.486;9.226;2024-02-26T01:53:09;8.40;99.90
62154;DHT22;48140;45.486;9.226;2024-02-26T01:55:35;8.30;99.90
62154;DHT22;48140;45.486;9.226;2024-02-26T01:58:00;8.30;99.90
62154;DHT22;48140;45.486;9.226;2024-02-26T02:00:26;8.30;99.90
62154;DHT22;48140;45.486;9.226;2024-02-26T02:05:31;8.30;99.90
62154;DHT22;48140;45.486;9.226;2024-02-26T02:07:58;8.20;99.90
62154;DHT22;48140;45.486;9.226;2024-02-26T02:10:24;8.20;99.90
62154;DHT22;48140;45.486;9.226;2024-02-26T02:12:51;8.40;99.90
62154;DHT22;48140;45.486;9.226;2024-02-26T02:15:17;8.60;99.90
62154;DHT22;48140;45.486;9.226;2024-02-26T02:17:43;8.70;99.90
62154;DHT22;48140;45.486;9.226;2024-02-26T02:20:09;8.70;99.90
62154;DHT22;48140;45.486;9.226;2024-02-26T02:22:35;8.70;99.90
62154;DHT22;48140;45.486;9.226;2024-02-26T02:25:00;8.50;99.90
62154;DHT22;48140;45.486;9.226;2024-02-26T02:27:27;8.40;99.90
62154;DHT22;48140;45.486;9.226;2024-02-26T02:29:54;8.40;99.90
62154;DHT22;48140;45.486;9.226;2024-02-26T02:32:22;8.40;99.90
62154;DHT22;48140;45.486;9.226;2024-02-26T02:34:49;8.30;99.90
62154;DHT22;48140;45.486;9.226;2024-02-26T02:37:14;8.20;99.90
62154;DHT22;48140;45.486;9.226;2024-02-26T02:39:40;8.30;99.90
62154;DHT22;48140;45.486;9.226;2024-02-26T02:42:08;8.20;99.90
62154;DHT22;48140;45.486;9.226;2024-02-26T02:44:34;8.20;99.90
62154;DHT22;48140;45.486;9.226;2024-02-26T02:47:00;8.20;99.90
62154;DHT22;48140;45.486;9.226;2024-02-26T02:49:29;8.10;99.90
62154;DHT22;48140;45.486;9.226;2024-02-26T02:51:54;8.20;99.90
62154;DHT22;48140;45.486;9.226;2024-02-26T02:54:23;8.20;99.90
62154;DHT22;48140;45.486;9.226;2024-02-26T02:56:49;8.40;99.90
62154;DHT22;48140;45.486;9.226;2024-02-26T02:59:14;8.40;99.90
62154;DHT22;48140;45.486;9.226;2024-02-26T03:01:40;8.30;99.90
62154;DHT22;48140;45.486;9.226;2024-02-26T03:04:16;8.20;99.90
62154;DHT22;48140;45.486;9.226;2024-02-26T03:06:41;8.20;99.90
62154;DHT22;48140;45.486;9.226;2024-02-26T03:09:07;8.20;99.90
62154;DHT22;48140;45.486;9.226;2024-02-26T03:11:35;8.20;99.90
62154;DHT22;48140;45.486;9.226;2024-02-26T03:14:01;8.10;99.90
62154;DHT22;48140;45.486;9.226;2024-02-26T03:16:26;8.20;99.90
62154;DHT22;48140;45.486;9.226;2024-02-26T03:18:52;8.10;99.90
62154;DHT22;48140;45.486;9.226;2024-02-26T03:21:18;8.10;99.90
62154;DHT22;48140;45.486;9.226;2024-02-26T03:23:43;8.20;99.90
62154;DHT22;48140;45.486;9.226;2024-02-26T03:26:09;8.10;99.90
62154;DHT22;48140;45.486;9.226;2024-02-26T03:28:38;8.10;99.90
62154;DHT22;48140;45.486;9.226;2024-02-26T03:31:04;8.10;99.90
62154;DHT22;48140;45.486;9.226;2024-02-26T03:33:33;8.50;99.90
62154;DHT22;48140;45.486;9.226;2024-02-26T03:36:02;8.10;99.90
62154;DHT22;48140;45.486;9.226;2024-02-26T03:38:28;8.10;99.90
62154;DHT22;48140;45.486;9.226;2024-02-26T03:40:54;8.10;99.90
62154;DHT22;48140;45.486;9.226;2024-02-26T03:43:20;8.10;99.90
62154;DHT22;48140;45.486;9.226;2024-02-26T03:45:46;8.10;99.90
62154;DHT22;48140;45.486;9.226;2024-02-26T03:48:11;8.10;99.90
62154;DHT22;48140;45.486;9.226;2024-02-26T03:50:40;8.00;99.90
62154;DHT22;48140;45.486;9.226;2024-02-26T03:53:06;8.10;99.90
62154;DHT22;48140;45.486;9.226;2024-02-26T03:55:42;8.00;99.90
62154;DHT22;48140;45.486;9.226;2024-02-26T03:58:07;8.00;99.90
62154;DHT22;48140;45.486;9.226;2024-02-26T04:00:34;8.20;99.90
62154;DHT22;48140;45.486;9.226;2024-02-26T04:02:59;8.00;99.90
62154;DHT22;48140;45.486;9.226;2024-02-26T04:05:25;8.00;99.90
62154;DHT22;48140;45.486;9.226;2024-02-26T04:07:51;8.00;99.90
62154;DHT22;48140;45.486;9.226;2024-02-26T04:10:16;8.00;99.90
62154;DHT22;48140;45.486;9.226;2024-02-26T04:12:42;8.00;99.90
62154;DHT22;48140;45.486;9.226;2024-02-26T04:15:11;8.00;99.90
62154;DHT22;48140;45.486;9.226;2024-02-26T04:17:37;8.00;99.90
62154;DHT22;48140;45.486;9.226;2024-02-26T04:20:04;7.90;99.90
62154;DHT22;48140;45.486;9.226;2024-02-26T04:22:30;7.90;99.90
62154;DHT22;48140;45.486;9.226;2024-02-26T04:24:56;7.90;99.90
62154;DHT22;48140;45.486;9.226;2024-02-26T04:27:27;7.90;99.90
62154;DHT22;48140;45.486;9.226;2024-02-26T04:29:53;7.90;99.90
62154;DHT22;48140;45.486;9.226;2024-02-26T04:32:18;7.90;99.90
62154;DHT22;48140;45.486;9.226;2024-02-26T04:34:44;7.90;99.90
62154;DHT22;48140;45.486;9.226;2024-02-26T04:37:09;7.90;99.90
62154;DHT22;48140;45.486;9.226;2024-02-26T04:39:38;7.90;99.90
62154;DHT22;48140;45.486;9.226;2024-02-26T04:42:04;7.80;99.90
62154;DHT22;48140;45.486;9.226;2024-02-26T04:44:30;7.80;99.90
62154;DHT22;48140;45.486;9.226;2024-02-26T04:46:56;7.80;99.90
62154;DHT22;48140;45.486;9.226;2024-02-26T04:49:21;7.80;99.90
62154;DHT22;48140;45.486;9.226;2024-02-26T04:51:47;7.70;99.90
62154;DHT22;48140;45.486;9.226;2024-02-26T04:54:16;7.80;99.90
62154;DHT22;48140;45.486;9.226;2024-02-26T04:56:44;7.70;99.90
62154;DHT22;48140;45.486;9.226;2024-02-26T04:59:09;7.70;99.90
62154;DHT22;48140;45.486;9.226;2024-02-26T05:01:35;7.70;99.90
62154;DHT22;48140;45.486;9.226;2024-02-26T05:04:02;7.80;99.90
62154;DHT22;48140;45.486;9.226;2024-02-26T05:06:28;7.70;99.90
62154;DHT22;48140;45.486;9.226;2024-02-26T05:08:54;7.70;99.90
62154;DHT22;48140;45.486;9.226;2024-02-26T05:11:20;7.70;99.90
62154;DHT22;48140;45.486;9.226;2024-02-26T05:13:47;7.70;99.90
62154;DHT22;48140;45.486;9.226;2024-02-26T05:16:13;7.70;99.90
62154;DHT22;48140;45.486;9.226;2024-02-26T05:18:38;7.70;99.90
62154;DHT22;48140;45.486;9.226;2024-02-26T05:21:04;7.70;99.90
62154;DHT22;48140;45.486;9.226;2024-02-26T05:23:29;7.70;99.90
62154;DHT22;48140;45.486;9.226;2024-02-26T05:25:55;7.60;99.90
62154;DHT22;48140;45.486;9.226;2024-02-26T05:29:21;7.60;99.90
62154;DHT22;48140;45.486;9.226;2024-02-26T05:31:28;7.60;99.90
62154;DHT22;48140;45.486;9.226;2024-02-26T05:33:54;7.60;99.90
62154;DHT22;48140;45.486;9.226;2024-02-26T05:36:20;7.60;99.90
62154;DHT22;48140;45.486;9.226;2024-02-26T05:38:46;7.60;99.90
62154;DHT22;48140;45.486;9.226;2024-02-26T05:41:12;7.60;99.90
62154;DHT22;48140;45.486;9.226;2024-02-26T05:43:37;7.60;99.90
62154;DHT22;48140;45.486;9.226;2024-02-26T05:46:03;7.60;99.90
62154;DHT22;48140;45.486;9.226;2024-02-26T05:48:29;7.70;99.90
62154;DHT22;48140;45.486;9.226;2024-02-26T05:50:54;7.70;99.90
62154;DHT22;48140;45.486;9.226;2024-02-26T05:53:20;7.70;99.90
62154;DHT22;48140;45.486;9.226;2024-02-26T05:55:45;7.70;99.90
62154;DHT22;48140;45.486;9.226;2024-02-26T05:58:11;7.70;99.90
62154;DHT22;48140;45.486;9.226;2024-02-26T06:00:37;7.70;99.90
62154;DHT22;48140;45.486;9.226;2024-02-26T06:03:02;7.70;99.90
62154;DHT22;48140;45.486;9.226;2024-02-26T06:05:30;7.60;99.90
62154;DHT22;48140;45.486;9.226;2024-02-26T06:08:23;7.60;99.90
62154;DHT22;48140;45.486;9.226;2024-02-26T06:10:48;7.60;99.90
62154;DHT22;48140;45.486;9.226;2024-02-26T06:13:13;7.60;99.90
62154;DHT22;48140;45.486;9.226;2024-02-26T06:15:39;7.50;99.90
62154;DHT22;48140;45.486;9.226;2024-02-26T06:18:04;7.50;99.90
62154;DHT22;48140;45.486;9.226;2024-02-26T06:20:30;7.60;99.90
62154;DHT22;48140;45.486;9.226;2024-02-26T06:22:56;7.50;99.90
62154;DHT22;48140;45.486;9.226;2024-02-26T06:25:21;7.50;99.90
62154;DHT22;48140;45.486;9.226;2024-02-26T06:27:47;7.60;99.90
62154;DHT22;48140;45.486;9.226;2024-02-26T06:30:12;7.60;99.90
62154;DHT22;48140;45.486;9.226;2024-02-26T06:32:41;7.50;99.90
62154;DHT22;48140;45.486;9.226;2024-02-26T06:35:09;7.50;99.90
62154;DHT22;48140;45.486;9.226;2024-02-26T06:37:45;7.50;99.90
62154;DHT22;48140;45.486;9.226;2024-02-26T06:40:11;7.50;99.90
62154;DHT22;48140;45.486;9.226;2024-02-26T06:42:42;7.60;99.90
62154;DHT22;48140;45.486;9.226;2024-02-26T06:45:12;7.50;99.90
62154;DHT22;48140;45.486;9.226;2024-02-26T06:47:37;7.60;99.90
62154;DHT22;48140;45.486;9.226;2024-02-26T06:50:10;7.60;99.90
62154;DHT22;48140;45.486;9.226;2024-02-26T06:52:36;7.60;99.90
62154;DHT22;48140;45.486;9.226;2024-02-26T06:55:02;7.60;99.90
62154;DHT22;48140;45.486;9.226;2024-02-26T06:57:27;7.60;99.90
62154;DHT22;48140;45.486;9.226;2024-02-26T06:59:53;7.60;99.90
62154;DHT22;48140;45.486;9.226;2024-02-26T07:02:18;7.60;99.90
62154;DHT22;48140;45.486;9.226;2024-02-26T07:04:44;7.60;99.90
62154;DHT22;48140;45.486;9.226;2024-02-26T07:07:10;7.60;99.90
62154;DHT22;48140;45.486;9.226;2024-02-26T07:09:35;7.60;99.90
62154;DHT22;48140;45.486;9.226;2024-02-26T07:12:01;7.70;99.90
62154;DHT22;48140;45.486;9.226;2024-02-26T07:14:27;7.60;99.90
62154;DHT22;48140;45.486;9.226;2024-02-26T07:16:56;7.70;99.90
62154;DHT22;48140;45.486;9.226;2024-02-26T07:19:23;7.70;99.90
62154;DHT22;48140;45.486;9.226;2024-02-26T07:21:49;7.70;99.90
62154;DHT22;48140;45.486;9.226;2024-02-26T07:24:14;7.70;99.90
62154;DHT22;48140;45.486;9.226;2024-02-26T07:26:40;7.70;99.90
62154;DHT22;48140;45.486;9.226;2024-02-26T07:29:06;7.70;99.90
62154;DHT22;48140;45.486;9.226;2024-02-26T07:31:31;7.70;99.90
62154;DHT22;48140;45.486;9.226;2024-02-26T07:33:57;7.70;99.90
62154;DHT22;48140;45.486;9.226;2024-02-26T07:36:23;7.70;99.90
62154;DHT22;48140;45.486;9.226;2024-02-26T07:38:48;7.80;99.90
62154;DHT22;48140;45.486;9.226;2024-02-26T07:41:14;7.70;99.90
62154;DHT22;48140;45.486;9.226;2024-02-26T07:43:39;7.70;99.90
62154;DHT22;48140;45.486;9.226;2024-02-26T07:46:06;7.80;99.90
62154;DHT22;48140;45.486;9.226;2024-02-26T07:48:32;7.80;99.90
62154;DHT22;48140;45.486;9.226;2024-02-26T07:50:57;7.90;99.90
62154;DHT22;48140;45.486;9.226;2024-02-26T07:53:25;7.90;99.90
62154;DHT22;48140;45.486;9.226;2024-02-26T07:55:50;7.90;99.90
62154;DHT22;48140;45.486;9.226;2024-02-26T07:58:16;8.00;99.90
62154;DHT22;48140;45.486;9.226;2024-02-26T08:00:41;8.00;99.90
62154;DHT22;48140;45.486;9.226;2024-02-26T08:03:07;8.00;99.90
62154;DHT22;48140;45.486;9.226;2024-02-26T08:05:33;8.00;99.90
62154;DHT22;48140;45.486;9.226;2024-02-26T08:07:58;8.00;99.90
62154;DHT22;48140;45.486;9.226;2024-02-26T08:10:24;8.00;99.90
62154;DHT22;48140;45.486;9.226;2024-02-26T08:12:52;8.00;99.90
62154;DHT22;48140;45.486;9.226;2024-02-26T08:15:18;8.00;99.90
62154;DHT22;48140;45.486;9.226;2024-02-26T08:17:44;8.10;99.90
62154;DHT22;48140;45.486;9.226;2024-02-26T08:20:09;8.10;99.90
62154;DHT22;48140;45.486;9.226;2024-02-26T08:22:35;8.00;99.90
62154;DHT22;48140;45.486;9.226;2024-02-26T08:25:02;8.00;99.90
62154;DHT22;48140;45.486;9.226;2024-02-26T08:27:31;8.00;99.90
62154;DHT22;48140;45.486;9.226;2024-02-26T08:29:57;8.10;99.90
62154;DHT22;48140;45.486;9.226;2024-02-26T08:32:22;8.00;99.90
62154;DHT22;48140;45.486;9.226;2024-02-26T08:34:48;8.00;99.90
62154;DHT22;48140;45.486;9.226;2024-02-26T08:37:13;8.00;99.90
62154;DHT22;48140;45.486;9.226;2024-02-26T08:39:39;8.00;99.90
62154;DHT22;48140;45.486;9.226;2024-02-26T08:42:05;8.00;99.90
62154;DHT22;48140;45.486;9.226;2024-02-26T08:44:30;8.10;99.90
62154;DHT22;48140;45.486;9.226;2024-02-26T08:46:56;8.10;99.90
62154;DHT22;48140;45.486;9.226;2024-02-26T08:49:21;8.10;99.90
62154;DHT22;48140;45.486;9.226;2024-02-26T08:51:48;8.10;99.90
62154;DHT22;48140;45.486;9.226;2024-02-26T08:54:15;8.10;99.90
62154;DHT22;48140;45.486;9.226;2024-02-26T08:56:40;8.00;99.90
62154;DHT22;48140;45.486;9.226;2024-02-26T08:59:06;8.00;99.90
62154;DHT22;48140;45.486;9.226;2024-02-26T09:01:31;8.00;99.90
62154;DHT22;48140;45.486;9.226;2024-02-26T09:03:58;7.90;99.90
62154;DHT22;48140;45.486;9.226;2024-02-26T09:06:23;7.90;99.90
62154;DHT22;48140;45.486;9.226;2024-02-26T09:08:49;7.80;99.90
62154;DHT22;48140;45.486;9.226;2024-02-26T09:11:15;7.80;99.90
62154;DHT22;48140;45.486;9.226;2024-02-26T09:13:41;7.80;99.90
62154;DHT22;48140;45.486;9.226;2024-02-26T09:16:07;7.70;99.90
62154;DHT22;48140;45.486;9.226;2024-02-26T09:18:33;7.70;99.90
62154;DHT22;48140;45.486;9.226;2024-02-26T09:20:58;7.70;99.90
62154;DHT22;48140;45.486;9.226;2024-02-26T09:23:24;7.70;99.90
62154;DHT22;48140;45.486;9.226;2024-02-26T09:25:50;7.60;99.90
62154;DHT22;48140;45.486;9.226;2024-02-26T09:28:15;7.60;99.90
62154;DHT22;48140;45.486;9.226;2024-02-26T09:30:44;7.60;99.90
62154;DHT22;48140;45.486;9.226;2024-02-26T09:33:10;7.70;99.90
62154;DHT22;48140;45.486;9.226;2024-02-26T09:35:36;7.70;99.90
62154;DHT22;48140;45.486;9.226;2024-02-26T09:38:02;7.70;99.90
62154;DHT22;48140;45.486;9.226;2024-02-26T09:40:28;7.70;99.90
62154;DHT22;48140;45.486;9.226;2024-02-26T09:42:58;7.60;99.90
62154;DHT22;48140;45.486;9.226;2024-02-26T09:45:25;7.60;99.90
62154;DHT22;48140;45.486;9.226;2024-02-26T09:47:52;7.60;99.90
62154;DHT22;48140;45.486;9.226;2024-02-26T09:50:20;7.60;99.90
62154;DHT22;48140;45.486;9.226;2024-02-26T09:52:48;7.60;99.90
62154;DHT22;48140;45.486;9.226;2024-02-26T09:55:13;7.60;99.90
62154;DHT22;48140;45.486;9.226;2024-02-26T09:57:39;7.60;99.90
62154;DHT22;48140;45.486;9.226;2024-02-26T10:00:07;7.60;99.90
62154;DHT22;48140;45.486;9.226;2024-02-26T10:02:35;7.60;99.90
62154;DHT22;48140;45.486;9.226;2024-02-26T10:05:02;7.60;99.90
62154;DHT22;48140;45.486;9.226;2024-02-26T10:07:30;7.70;99.90
62154;DHT22;48140;45.486;9.226;2024-02-26T10:09:58;7.60;99.90
62154;DHT22;48140;45.486;9.226;2024-02-26T10:12:23;7.60;99.90
62154;DHT22;48140;45.486;9.226;2024-02-26T10:14:51;7.60;99.90
62154;DHT22;48140;45.486;9.226;2024-02-26T10:17:16;7.60;99.90
62154;DHT22;48140;45.486;9.226;2024-02-26T10:19:42;7.60;99.90
62154;DHT22;48140;45.486;9.226;2024-02-26T10:22:09;7.60;99.90
62154;DHT22;48140;45.486;9.226;2024-02-26T10:24:34;7.50;99.90
62154;DHT22;48140;45.486;9.226;2024-02-26T10:27:00;7.50;99.90
62154;DHT22;48140;45.486;9.226;2024-02-26T10:29:27;7.40;99.90
62154;DHT22;48140;45.486;9.226;2024-02-26T10:31:52;7.40;99.90
62154;DHT22;48140;45.486;9.226;2024-02-26T10:34:18;7.50;99.90
62154;DHT22;48140;45.486;9.226;2024-02-26T10:36:44;7.60;99.90
62154;DHT22;48140;45.486;9.226;2024-02-26T10:39:09;7.50;99.90
62154;DHT22;48140;45.486;9.226;2024-02-26T10:41:36;7.60;99.90
62154;DHT22;48140;45.486;9.226;2024-02-26T10:44:02;7.40;99.90
62154;DHT22;48140;45.486;9.226;2024-02-26T10:46:28;7.50;99.90
62154;DHT22;48140;45.486;9.226;2024-02-26T10:48:54;7.50;99.90
62154;DHT22;48140;45.486;9.226;2024-02-26T10:51:20;7.60;99.90
62154;DHT22;48140;45.486;9.226;2024-02-26T10:53:47;7.60;99.90
62154;DHT22;48140;45.486;9.226;2024-02-26T10:56:14;7.50;99.90
62154;DHT22;48140;45.486;9.226;2024-02-26T10:58:41;7.50;99.90
62154;DHT22;48140;45.486;9.226;2024-02-26T11:01:08;7.70;99.90
62154;DHT22;48140;45.486;9.226;2024-02-26T11:03:34;7.70;99.90
62154;DHT22;48140;45.486;9.226;2024-02-26T11:06:01;7.60;99.90
62154;DHT22;48140;45.486;9.226;2024-02-26T11:08:28;7.60;99.90
62154;DHT22;48140;45.486;9.226;2024-02-26T11:10:55;7.60;99.90
62154;DHT22;48140;45.486;9.226;2024-02-26T11:13:21;7.70;99.90
62154;DHT22;48140;45.486;9.226;2024-02-26T11:15:46;7.50;99.90
62154;DHT22;48140;45.486;9.226;2024-02-26T11:18:16;7.40;99.90
62154;DHT22;48140;45.486;9.226;2024-02-26T11:20:43;7.50;99.90
62154;DHT22;48140;45.486;9.226;2024-02-26T11:23:08;7.50;99.90
62154;DHT22;48140;45.486;9.226;2024-02-26T11:25:35;7.50;99.90
62154;DHT22;48140;45.486;9.226;2024-02-26T11:28:03;7.50;99.90
62154;DHT22;48140;45.486;9.226;2024-02-26T11:30:30;7.50;99.90
62154;DHT22;48140;45.486;9.226;2024-02-26T11:32:56;7.60;99.90
62154;DHT22;48140;45.486;9.226;2024-02-26T11:35:22;7.60;99.90
62154;DHT22;48140;45.486;9.226;2024-02-26T11:37:54;7.60;99.90
62154;DHT22;48140;45.486;9.226;2024-02-26T11:40:25;7.60;99.90
62154;DHT22;48140;45.486;9.226;2024-02-26T11:42:53;7.60;99.90
62154;DHT22;48140;45.486;9.226;2024-02-26T11:48:03;7.50;99.90
62154;DHT22;48140;45.486;9.226;2024-02-26T11:50:36;7.60;99.90
62154;DHT22;48140;45.486;9.226;2024-02-26T11:55:46;7.50;99.90
62154;DHT22;48140;45.486;9.226;2024-02-26T11:58:11;7.50;99.90
62154;DHT22;48140;45.486;9.226;2024-02-26T12:00:39;7.50;99.90
62154;DHT22;48140;45.486;9.226;2024-02-26T12:03:06;7.50;99.90
62154;DHT22;48140;45.486;9.226;2024-02-26T12:05:34;7.50;99.90
62154;DHT22;48140;45.486;9.226;2024-02-26T12:08:04;7.50;99.90
62154;DHT22;48140;45.486;9.226;2024-02-26T12:10:33;7.50;99.90
62154;DHT22;48140;45.486;9.226;2024-02-26T12:13:08;7.50;99.90
62154;DHT22;48140;45.486;9.226;2024-02-26T12:15:37;7.50;99.90
62154;DHT22;48140;45.486;9.226;2024-02-26T12:18:04;7.60;99.90
62154;DHT22;48140;45.486;9.226;2024-02-26T12:20:30;7.60;99.90
62154;DHT22;48140;45.486;9.226;2024-02-26T12:22:56;7.60;99.90
62154;DHT22;48140;45.486;9.226;2024-02-26T12:25:23;7.50;99.90
62154;DHT22;48140;45.486;9.226;2024-02-26T12:27:49;7.60;99.90
62154;DHT22;48140;45.486;9.226;2024-02-26T12:30:16;7.60;99.90
62154;DHT22;48140;45.486;9.226;2024-02-26T12:32:42;7.60;99.90
62154;DHT22;48140;45.486;9.226;2024-02-26T12:35:07;7.60;99.90
62154;DHT22;48140;45.486;9.226;2024-02-26T12:37:33;7.50;99.90
62154;DHT22;48140;45.486;9.226;2024-02-26T12:39:58;7.60;99.90
62154;DHT22;48140;45.486;9.226;2024-02-26T12:42:24;7.70;99.90
62154;DHT22;48140;45.486;9.226;2024-02-26T12:44:50;7.60;99.90
62154;DHT22;48140;45.486;9.226;2024-02-26T12:47:24;7.70;99.90
62154;DHT22;48140;45.486;9.226;2024-02-26T12:49:50;7.90;99.90
62154;DHT22;48140;45.486;9.226;2024-02-26T12:52:16;8.00;99.90
62154;DHT22;48140;45.486;9.226;2024-02-26T12:54:42;7.90;99.90
62154;DHT22;48140;45.486;9.226;2024-02-26T12:57:11;7.80;99.90
62154;DHT22;48140;45.486;9.226;2024-02-26T12:59:37;7.80;99.90
62154;DHT22;48140;45.486;9.226;2024-02-26T13:02:03;7.80;99.90
62154;DHT22;48140;45.486;9.226;2024-02-26T13:04:32;7.70;99.90
62154;DHT22;48140;45.486;9.226;2024-02-26T13:06:59;7.70;99.90
62154;DHT22;48140;45.486;9.226;2024-02-26T13:09:31;7.60;99.90
62154;DHT22;48140;45.486;9.226;2024-02-26T13:11:57;7.60;99.90
62154;DHT22;48140;45.486;9.226;2024-02-26T13:14:23;7.50;99.90
62154;DHT22;48140;45.486;9.226;2024-02-26T13:16:58;7.50;99.90
62154;DHT22;48140;45.486;9.226;2024-02-26T13:19:24;7.50;99.90
62154;DHT22;48140;45.486;9.226;2024-02-26T13:21:52;7.50;99.90
62154;DHT22;48140;45.486;9.226;2024-02-26T13:24:19;7.60;99.90
62154;DHT22;48140;45.486;9.226;2024-02-26T13:27:06;7.50;99.90
62154;DHT22;48140;45.486;9.226;2024-02-26T13:29:31;7.60;99.90
62154;DHT22;48140;45.486;9.226;2024-02-26T13:32:00;7.60;99.90
62154;DHT22;48140;45.486;9.226;2024-02-26T13:34:28;7.60;99.90
62154;DHT22;48140;45.486;9.226;2024-02-26T13:36:56;7.60;99.90
62154;DHT22;48140;45.486;9.226;2024-02-26T13:39:24;7.70;99.90
62154;DHT22;48140;45.486;9.226;2024-02-26T13:41:50;7.60;99.90
62154;DHT22;48140;45.486;9.226;2024-02-26T13:44:16;7.60;99.90
62154;DHT22;48140;45.486;9.226;2024-02-26T13:46:42;7.60;99.90
62154;DHT22;48140;45.486;9.226;2024-02-26T13:49:08;7.60;99.90
62154;DHT22;48140;45.486;9.226;2024-02-26T13:51:34;7.50;99.90
62154;DHT22;48140;45.486;9.226;2024-02-26T13:54:01;7.50;99.90
62154;DHT22;48140;45.486;9.226;2024-02-26T13:56:26;7.50;99.90
62154;DHT22;48140;45.486;9.226;2024-02-26T13:58:52;7.50;99.90
62154;DHT22;48140;45.486;9.226;2024-02-26T14:01:17;7.50;99.90
62154;DHT22;48140;45.486;9.226;2024-02-26T14:03:46;7.50;99.90
62154;DHT22;48140;45.486;9.226;2024-02-26T14:06:12;7.60;99.90
62154;DHT22;48140;45.486;9.226;2024-02-26T14:08:37;7.50;99.90
62154;DHT22;48140;45.486;9.226;2024-02-26T14:11:03;7.50;99.90
62154;DHT22;48140;45.486;9.226;2024-02-26T14:13:28;7.50;99.90
62154;DHT22;48140;45.486;9.226;2024-02-26T14:15:54;7.60;99.90
62154;DHT22;48140;45.486;9.226;2024-02-26T14:18:20;7.50;99.90
62154;DHT22;48140;45.486;9.226;2024-02-26T14:20:45;7.50;99.90
62154;DHT22;48140;45.486;9.226;2024-02-26T14:23:11;7.60;99.90
62154;DHT22;48140;45.486;9.226;2024-02-26T14:25:37;7.60;99.90
62154;DHT22;48140;45.486;9.226;2024-02-26T14:28:02;7.60;99.90
62154;DHT22;48140;45.486;9.226;2024-02-26T14:30:28;7.60;99.90
62154;DHT22;48140;45.486;9.226;2024-02-26T14:32:54;7.60;99.90
62154;DHT22;48140;45.486;9.226;2024-02-26T14:35:19;7.60;99.90
62154;DHT22;48140;45.486;9.226;2024-02-26T14:37:45;7.70;99.90
62154;DHT22;48140;45.486;9.226;2024-02-26T14:40:18;7.70;99.90
62154;DHT22;48140;45.486;9.226;2024-02-26T14:42:44;7.70;99.90
62154;DHT22;48140;45.486;9.226;2024-02-26T14:45:10;7.80;99.90
62154;DHT22;48140;45.486;9.226;2024-02-26T14:47:36;7.60;99.90
62154;DHT22;48140;45.486;9.226;2024-02-26T14:50:02;7.70;99.90
62154;DHT22;48140;45.486;9.226;2024-02-26T14:52:27;7.60;99.90
62154;DHT22;48140;45.486;9.226;2024-02-26T14:54:55;7.70;99.90
62154;DHT22;48140;45.486;9.226;2024-02-26T14:57:20;7.70;99.90
62154;DHT22;48140;45.486;9.226;2024-02-26T14:59:47;7.60;99.90
62154;DHT22;48140;45.486;9.226;2024-02-26T15:02:13;7.50;99.90
62154;DHT22;48140;45.486;9.226;2024-02-26T15:04:39;7.60;99.90
62154;DHT22;48140;45.486;9.226;2024-02-26T15:07:05;7.60;99.90
62154;DHT22;48140;45.486;9.226;2024-02-26T15:09:31;7.60;99.90
62154;DHT22;48140;45.486;9.226;2024-02-26T15:11:57;7.50;99.90
62154;DHT22;48140;45.486;9.226;2024-02-26T15:14:23;7.50;99.90
62154;DHT22;48140;45.486;9.226;2024-02-26T15:16:49;7.50;99.90
62154;DHT22;48140;45.486;9.226;2024-02-26T15:19:14;7.50;99.90
62154;DHT22;48140;45.486;9.226;2024-02-26T15:21:43;7.50;99.90
62154;DHT22;48140;45.486;9.226;2024-02-26T15:24:09;7.60;99.90
62154;DHT22;48140;45.486;9.226;2024-02-26T15:26:36;7.60;99.90
62154;DHT22;48140;45.486;9.226;2024-02-26T15:29:02;7.60;99.90
62154;DHT22;48140;45.486;9.226;2024-02-26T15:31:27;7.60;99.90
62154;DHT22;48140;45.486;9.226;2024-02-26T15:33:53;7.60;99.90
62154;DHT22;48140;45.486;9.226;2024-02-26T15:36:18;7.60;99.90
62154;DHT22;48140;45.486;9.226;2024-02-26T15:38:44;7.60;99.90
62154;DHT22;48140;45.486;9.226;2024-02-26T15:41:10;7.60;99.90
62154;DHT22;48140;45.486;9.226;2024-02-26T15:43:36;7.60;99.90
62154;DHT22;48140;45.486;9.226;2024-02-26T15:46:01;7.60;99.90
62154;DHT22;48140;45.486;9.226;2024-02-26T15:48:28;7.60;99.90